sensor_id;sensor_type;location;lat;lon;timestamp;P1;durP1;ratioP1;P2;durP2;ratioP2
21175;SDS011;10746;50.178;8.186;2022-09-17T00:00:57;2.57;;;1.80;;
21175;SDS011;10746;50.178;8.186;2022-09-17T00:03:24;8.23;;;2.07;;
21175;SDS011;10746;50.178;8.186;2022-09-17T00:05:58;9.80;;;2.10;;
21175;SDS011;10746;50.178;8.186;2022-09-17T00:08:26;5.83;;;2.40;;
21175;SDS011;10746;50.178;8.186;2022-09-17T00:10:53;5.83;;;2.20;;
21175;SDS011;10746;50.178;8.186;2022-09-17T00:13:20;9.23;;;1.97;;
21175;SDS011;10746;50.178;8.186;2022-09-17T00:15:47;8.97;;;2.23;;
21175;SDS011;10746;50.178;8.186;2022-09-17T00:18:15;3.57;;;1.97;;
21175;SDS011;10746;50.178;8.186;2022-09-17T00:20:42;7.00;;;1.90;;
21175;SDS011;10746;50.178;8.186;2022-09-17T00:23:12;2.83;;;2.07;;
21175;SDS011;10746;50.178;8.186;2022-09-17T00:25:40;5.20;;;1.83;;
21175;SDS011;10746;50.178;8.186;2022-09-17T00:28:08;10.07;;;2.20;;
21175;SDS011;10746;50.178;8.186;2022-09-17T00:30:35;4.83;;;1.97;;
21175;SDS011;10746;50.178;8.186;2022-09-17T00:33:04;10.03;;;2.43;;
21175;SDS011;10746;50.178;8.186;2022-09-17T00:35:31;8.83;;;2.37;;
21175;SDS011;10746;50.178;8.186;2022-09-17T00:37:58;11.20;;;2.30;;
21175;SDS011;10746;50.178;8.186;2022-09-17T00:40:26;6.73;;;2.77;;
21175;SDS011;10746;50.178;8.186;2022-09-17T00:42:53;7.57;;;2.20;;
21175;SDS011;10746;50.178;8.186;2022-09-17T00:45:20;6.13;;;2.47;;
21175;SDS011;10746;50.178;8.186;2022-09-17T00:47:49;8.87;;;2.30;;
21175;SDS011;10746;50.178;8.186;2022-09-17T00:50:25;5.30;;;1.83;;
21175;SDS011;10746;50.178;8.186;2022-09-17T00:52:55;5.80;;;2.50;;
21175;SDS011;10746;50.178;8.186;2022-09-17T00:55:25;12.57;;;2.70;;
21175;SDS011;10746;50.178;8.186;2022-09-17T00:57:58;6.23;;;2.30;;
21175;SDS011;10746;50.178;8.186;2022-09-17T01:00:27;6.47;;;2.43;;
21175;SDS011;10746;50.178;8.186;2022-09-17T01:02:55;6.77;;;2.40;;
21175;SDS011;10746;50.178;8.186;2022-09-17T01:05:25;7.53;;;2.43;;
21175;SDS011;10746;50.178;8.186;2022-09-17T01:08:04;6.20;;;2.33;;
21175;SDS011;10746;50.178;8.186;2022-09-17T01:10:44;8.10;;;2.50;;
21175;SDS011;10746;50.178;8.186;2022-09-17T01:13:42;4.67;;;2.40;;
21175;SDS011;10746;50.178;8.186;2022-09-17T01:16:17;5.80;;;2.43;;
21175;SDS011;10746;50.178;8.186;2022-09-17T01:18:53;8.07;;;2.37;;
21175;SDS011;10746;50.178;8.186;2022-09-17T01:21:41;7.97;;;2.92;;
21175;SDS011;10746;50.178;8.186;2022-09-17T01:33:30;8.33;;;3.97;;
21175;SDS011;10746;50.178;8.186;2022-09-17T01:36:10;10.20;;;2.87;;
21175;SDS011;10746;50.178;8.186;2022-09-17T01:38:47;14.27;;;2.80;;
21175;SDS011;10746;50.178;8.186;2022-09-17T01:41:21;10.20;;;3.87;;
21175;SDS011;10746;50.178;8.186;2022-09-17T01:43:57;8.27;;;2.60;;
21175;SDS011;10746;50.178;8.186;2022-09-17T01:46:30;9.03;;;2.70;;
21175;SDS011;10746;50.178;8.186;2022-09-17T01:49:02;11.73;;;3.13;;
21175;SDS011;10746;50.178;8.186;2022-09-17T01:51:34;10.40;;;3.00;;
21175;SDS011;10746;50.178;8.186;2022-09-17T01:54:04;7.83;;;2.70;;
21175;SDS011;10746;50.178;8.186;2022-09-17T01:56:36;7.73;;;2.87;;
21175;SDS011;10746;50.178;8.186;2022-09-17T01:59:08;7.10;;;2.70;;
21175;SDS011;10746;50.178;8.186;2022-09-17T02:01:42;8.87;;;2.90;;
21175;SDS011;10746;50.178;8.186;2022-09-17T02:04:13;8.00;;;3.00;;
21175;SDS011;10746;50.178;8.186;2022-09-17T02:06:46;8.57;;;2.93;;
21175;SDS011;10746;50.178;8.186;2022-09-17T02:09:22;4.33;;;2.90;;
21175;SDS011;10746;50.178;8.186;2022-09-17T02:11:54;6.13;;;3.00;;
21175;SDS011;10746;50.178;8.186;2022-09-17T02:14:26;4.00;;;2.47;;
21175;SDS011;10746;50.178;8.186;2022-09-17T02:16:59;9.15;;;3.63;;
21175;SDS011;10746;50.178;8.186;2022-09-17T02:19:31;11.03;;;3.10;;
21175;SDS011;10746;50.178;8.186;2022-09-17T02:22:04;7.15;;;2.92;;
21175;SDS011;10746;50.178;8.186;2022-09-17T02:24:41;9.33;;;3.00;;
21175;SDS011;10746;50.178;8.186;2022-09-17T02:27:15;10.13;;;2.87;;
21175;SDS011;10746;50.178;8.186;2022-09-17T02:29:47;5.87;;;2.80;;
21175;SDS011;10746;50.178;8.186;2022-09-17T02:32:16;7.33;;;3.10;;
21175;SDS011;10746;50.178;8.186;2022-09-17T02:34:43;5.63;;;3.30;;
21175;SDS011;10746;50.178;8.186;2022-09-17T02:37:10;8.47;;;3.50;;
21175;SDS011;10746;50.178;8.186;2022-09-17T02:39:36;7.17;;;3.20;;
21175;SDS011;10746;50.178;8.186;2022-09-17T02:42:04;10.60;;;3.33;;
21175;SDS011;10746;50.178;8.186;2022-09-17T02:44:45;11.97;;;2.97;;
21175;SDS011;10746;50.178;8.186;2022-09-17T02:47:26;14.17;;;3.40;;
21175;SDS011;10746;50.178;8.186;2022-09-17T02:53:23;9.70;;;3.50;;
21175;SDS011;10746;50.178;8.186;2022-09-17T02:55:59;6.23;;;3.40;;
21175;SDS011;10746;50.178;8.186;2022-09-17T02:58:38;10.00;;;3.40;;
21175;SDS011;10746;50.178;8.186;2022-09-17T03:01:13;13.07;;;3.80;;
21175;SDS011;10746;50.178;8.186;2022-09-17T03:03:43;3.40;;;3.10;;
21175;SDS011;10746;50.178;8.186;2022-09-17T03:06:14;11.10;;;4.83;;
21175;SDS011;10746;50.178;8.186;2022-09-17T03:08:42;12.10;;;3.40;;
21175;SDS011;10746;50.178;8.186;2022-09-17T03:11:09;10.73;;;4.10;;
21175;SDS011;10746;50.178;8.186;2022-09-17T03:13:37;8.23;;;3.50;;
21175;SDS011;10746;50.178;8.186;2022-09-17T03:16:04;11.10;;;3.60;;
21175;SDS011;10746;50.178;8.186;2022-09-17T03:18:31;7.63;;;3.73;;
21175;SDS011;10746;50.178;8.186;2022-09-17T03:21:00;5.33;;;3.70;;
21175;SDS011;10746;50.178;8.186;2022-09-17T03:23:26;23.20;;;3.70;;
21175;SDS011;10746;50.178;8.186;2022-09-17T03:25:53;8.70;;;3.70;;
21175;SDS011;10746;50.178;8.186;2022-09-17T03:28:20;7.67;;;3.63;;
21175;SDS011;10746;50.178;8.186;2022-09-17T03:30:47;8.53;;;4.03;;
21175;SDS011;10746;50.178;8.186;2022-09-17T03:33:13;12.37;;;4.00;;
21175;SDS011;10746;50.178;8.186;2022-09-17T03:35:41;8.73;;;3.63;;
21175;SDS011;10746;50.178;8.186;2022-09-17T03:38:09;7.83;;;3.73;;
21175;SDS011;10746;50.178;8.186;2022-09-17T03:40:36;6.47;;;4.03;;
21175;SDS011;10746;50.178;8.186;2022-09-17T03:43:03;8.40;;;3.90;;
21175;SDS011;10746;50.178;8.186;2022-09-17T03:45:30;9.83;;;3.97;;
21175;SDS011;10746;50.178;8.186;2022-09-17T03:47:57;8.17;;;4.20;;
21175;SDS011;10746;50.178;8.186;2022-09-17T03:50:24;9.53;;;5.00;;
21175;SDS011;10746;50.178;8.186;2022-09-17T03:52:51;9.63;;;4.00;;
21175;SDS011;10746;50.178;8.186;2022-09-17T03:55:19;5.97;;;4.27;;
21175;SDS011;10746;50.178;8.186;2022-09-17T03:57:45;9.60;;;4.00;;
21175;SDS011;10746;50.178;8.186;2022-09-17T04:00:13;7.47;;;4.13;;
21175;SDS011;10746;50.178;8.186;2022-09-17T04:02:41;5.47;;;4.30;;
21175;SDS011;10746;50.178;8.186;2022-09-17T04:05:08;6.47;;;4.10;;
21175;SDS011;10746;50.178;8.186;2022-09-17T04:07:35;5.57;;;3.90;;
21175;SDS011;10746;50.178;8.186;2022-09-17T04:10:02;6.97;;;3.67;;
21175;SDS011;10746;50.178;8.186;2022-09-17T04:12:31;7.50;;;4.50;;
21175;SDS011;10746;50.178;8.186;2022-09-17T04:14:57;6.53;;;3.20;;
21175;SDS011;10746;50.178;8.186;2022-09-17T04:17:24;4.07;;;3.20;;
21175;SDS011;10746;50.178;8.186;2022-09-17T04:19:52;3.90;;;3.50;;
21175;SDS011;10746;50.178;8.186;2022-09-17T04:22:19;5.13;;;3.87;;
21175;SDS011;10746;50.178;8.186;2022-09-17T04:24:46;4.73;;;3.53;;
21175;SDS011;10746;50.178;8.186;2022-09-17T04:27:13;4.93;;;3.60;;
21175;SDS011;10746;50.178;8.186;2022-09-17T04:29:41;9.27;;;3.70;;
21175;SDS011;10746;50.178;8.186;2022-09-17T04:32:07;4.33;;;3.80;;
21175;SDS011;10746;50.178;8.186;2022-09-17T04:34:34;7.77;;;4.40;;
21175;SDS011;10746;50.178;8.186;2022-09-17T04:37:01;6.63;;;3.87;;
21175;SDS011;10746;50.178;8.186;2022-09-17T04:39:28;8.03;;;3.87;;
21175;SDS011;10746;50.178;8.186;2022-09-17T04:41:55;10.27;;;4.67;;
21175;SDS011;10746;50.178;8.186;2022-09-17T04:44:21;7.97;;;4.77;;
21175;SDS011;10746;50.178;8.186;2022-09-17T04:46:49;10.40;;;5.17;;
21175;SDS011;10746;50.178;8.186;2022-09-17T04:49:16;13.97;;;5.80;;
21175;SDS011;10746;50.178;8.186;2022-09-17T04:51:43;10.70;;;5.53;;
21175;SDS011;10746;50.178;8.186;2022-09-17T04:54:10;16.10;;;6.10;;
21175;SDS011;10746;50.178;8.186;2022-09-17T04:56:36;13.07;;;6.63;;
21175;SDS011;10746;50.178;8.186;2022-09-17T04:59:03;10.17;;;6.13;;
21175;SDS011;10746;50.178;8.186;2022-09-17T05:01:31;16.70;;;6.93;;
21175;SDS011;10746;50.178;8.186;2022-09-17T05:03:59;15.40;;;6.67;;
21175;SDS011;10746;50.178;8.186;2022-09-17T05:06:26;27.27;;;7.70;;
21175;SDS011;10746;50.178;8.186;2022-09-17T05:08:53;19.53;;;7.77;;
21175;SDS011;10746;50.178;8.186;2022-09-17T05:11:19;25.63;;;7.90;;
21175;SDS011;10746;50.178;8.186;2022-09-17T05:13:46;17.60;;;7.77;;
21175;SDS011;10746;50.178;8.186;2022-09-17T05:16:13;15.07;;;7.53;;
21175;SDS011;10746;50.178;8.186;2022-09-17T05:18:40;17.10;;;7.60;;
21175;SDS011;10746;50.178;8.186;2022-09-17T05:21:08;19.53;;;7.93;;
21175;SDS011;10746;50.178;8.186;2022-09-17T05:23:35;15.97;;;7.33;;
21175;SDS011;10746;50.178;8.186;2022-09-17T05:26:02;16.13;;;7.17;;
21175;SDS011;10746;50.178;8.186;2022-09-17T05:28:29;22.50;;;7.50;;
21175;SDS011;10746;50.178;8.186;2022-09-17T05:30:57;18.90;;;7.70;;
21175;SDS011;10746;50.178;8.186;2022-09-17T05:33:24;17.70;;;7.30;;
21175;SDS011;10746;50.178;8.186;2022-09-17T05:35:51;19.13;;;7.53;;
21175;SDS011;10746;50.178;8.186;2022-09-17T05:38:19;19.53;;;7.60;;
21175;SDS011;10746;50.178;8.186;2022-09-17T05:40:46;19.90;;;7.70;;
21175;SDS011;10746;50.178;8.186;2022-09-17T05:43:14;21.87;;;8.50;;
21175;SDS011;10746;50.178;8.186;2022-09-17T05:45:42;28.03;;;8.23;;
21175;SDS011;10746;50.178;8.186;2022-09-17T05:48:10;16.83;;;7.80;;
21175;SDS011;10746;50.178;8.186;2022-09-17T05:50:38;20.57;;;7.87;;
21175;SDS011;10746;50.178;8.186;2022-09-17T05:53:06;26.80;;;8.23;;
21175;SDS011;10746;50.178;8.186;2022-09-17T05:55:36;20.87;;;7.40;;
21175;SDS011;10746;50.178;8.186;2022-09-17T05:58:10;27.80;;;8.87;;
21175;SDS011;10746;50.178;8.186;2022-09-17T06:00:37;23.27;;;8.77;;
21175;SDS011;10746;50.178;8.186;2022-09-17T06:03:05;18.53;;;8.80;;
21175;SDS011;10746;50.178;8.186;2022-09-17T06:05:31;17.93;;;7.63;;
21175;SDS011;10746;50.178;8.186;2022-09-17T06:07:58;22.80;;;8.50;;
21175;SDS011;10746;50.178;8.186;2022-09-17T06:10:25;16.47;;;7.90;;
21175;SDS011;10746;50.178;8.186;2022-09-17T06:12:56;20.88;;;7.85;;
21175;SDS011;10746;50.178;8.186;2022-09-17T06:15:24;18.10;;;7.70;;
21175;SDS011;10746;50.178;8.186;2022-09-17T06:17:51;19.57;;;7.23;;
21175;SDS011;10746;50.178;8.186;2022-09-17T06:20:18;14.43;;;6.93;;
21175;SDS011;10746;50.178;8.186;2022-09-17T06:22:45;15.40;;;7.63;;
21175;SDS011;10746;50.178;8.186;2022-09-17T06:25:12;20.17;;;7.05;;
21175;SDS011;10746;50.178;8.186;2022-09-17T06:27:39;18.20;;;8.00;;
21175;SDS011;10746;50.178;8.186;2022-09-17T06:30:07;23.07;;;7.50;;
21175;SDS011;10746;50.178;8.186;2022-09-17T06:32:34;15.83;;;6.93;;
21175;SDS011;10746;50.178;8.186;2022-09-17T06:35:01;16.47;;;7.50;;
21175;SDS011;10746;50.178;8.186;2022-09-17T06:37:27;18.20;;;7.87;;
21175;SDS011;10746;50.178;8.186;2022-09-17T06:39:55;19.70;;;7.40;;
21175;SDS011;10746;50.178;8.186;2022-09-17T06:42:23;18.43;;;7.73;;
21175;SDS011;10746;50.178;8.186;2022-09-17T06:44:50;15.67;;;7.20;;
21175;SDS011;10746;50.178;8.186;2022-09-17T06:47:18;18.93;;;7.80;;
21175;SDS011;10746;50.178;8.186;2022-09-17T06:49:45;20.57;;;6.90;;
21175;SDS011;10746;50.178;8.186;2022-09-17T06:52:11;16.87;;;6.93;;
21175;SDS011;10746;50.178;8.186;2022-09-17T06:54:40;19.13;;;6.80;;
21175;SDS011;10746;50.178;8.186;2022-09-17T06:57:07;13.45;;;6.70;;
21175;SDS011;10746;50.178;8.186;2022-09-17T06:59:34;20.40;;;7.00;;
21175;SDS011;10746;50.178;8.186;2022-09-17T07:02:00;19.98;;;6.55;;
21175;SDS011;10746;50.178;8.186;2022-09-17T07:04:28;22.52;;;7.03;;
21175;SDS011;10746;50.178;8.186;2022-09-17T07:06:55;22.17;;;6.63;;
21175;SDS011;10746;50.178;8.186;2022-09-17T07:09:22;18.67;;;6.20;;
21175;SDS011;10746;50.178;8.186;2022-09-17T07:11:48;13.83;;;5.73;;
21175;SDS011;10746;50.178;8.186;2022-09-17T07:14:15;14.27;;;6.13;;
21175;SDS011;10746;50.178;8.186;2022-09-17T07:16:43;18.48;;;5.95;;
21175;SDS011;10746;50.178;8.186;2022-09-17T07:19:10;15.50;;;6.55;;
21175;SDS011;10746;50.178;8.186;2022-09-17T07:21:38;20.20;;;5.50;;
21175;SDS011;10746;50.178;8.186;2022-09-17T07:24:04;7.90;;;4.90;;
21175;SDS011;10746;50.178;8.186;2022-09-17T07:26:31;18.13;;;5.50;;
21175;SDS011;10746;50.178;8.186;2022-09-17T07:28:58;15.40;;;5.80;;
21175;SDS011;10746;50.178;8.186;2022-09-17T07:31:25;13.63;;;5.22;;
21175;SDS011;10746;50.178;8.186;2022-09-17T07:33:51;11.98;;;4.93;;
21175;SDS011;10746;50.178;8.186;2022-09-17T07:36:18;8.35;;;4.55;;
21175;SDS011;10746;50.178;8.186;2022-09-17T07:38:46;12.68;;;4.93;;
21175;SDS011;10746;50.178;8.186;2022-09-17T07:41:13;11.75;;;4.55;;
21175;SDS011;10746;50.178;8.186;2022-09-17T07:43:41;14.88;;;5.25;;
21175;SDS011;10746;50.178;8.186;2022-09-17T07:46:09;12.73;;;5.18;;
21175;SDS011;10746;50.178;8.186;2022-09-17T07:48:39;17.05;;;5.00;;
21175;SDS011;10746;50.178;8.186;2022-09-17T07:51:06;9.23;;;4.50;;
21175;SDS011;10746;50.178;8.186;2022-09-17T07:53:32;18.30;;;5.53;;
21175;SDS011;10746;50.178;8.186;2022-09-17T07:56:00;12.77;;;4.63;;
21175;SDS011;10746;50.178;8.186;2022-09-17T07:58:28;12.60;;;4.75;;
21175;SDS011;10746;50.178;8.186;2022-09-17T08:00:59;11.63;;;4.47;;
21175;SDS011;10746;50.178;8.186;2022-09-17T08:03:26;13.30;;;4.70;;
21175;SDS011;10746;50.178;8.186;2022-09-17T08:05:53;13.45;;;4.60;;
21175;SDS011;10746;50.178;8.186;2022-09-17T08:08:25;7.50;;;4.00;;
21175;SDS011;10746;50.178;8.186;2022-09-17T08:10:52;11.95;;;3.85;;
21175;SDS011;10746;50.178;8.186;2022-09-17T08:13:20;11.73;;;3.40;;
21175;SDS011;10746;50.178;8.186;2022-09-17T08:15:47;7.65;;;3.55;;
21175;SDS011;10746;50.178;8.186;2022-09-17T08:18:14;10.07;;;2.97;;
21175;SDS011;10746;50.178;8.186;2022-09-17T08:20:42;14.70;;;3.58;;
21175;SDS011;10746;50.178;8.186;2022-09-17T08:23:09;8.02;;;3.38;;
21175;SDS011;10746;50.178;8.186;2022-09-17T08:25:35;10.80;;;3.90;;
21175;SDS011;10746;50.178;8.186;2022-09-17T08:28:02;8.43;;;3.60;;
21175;SDS011;10746;50.178;8.186;2022-09-17T08:30:30;9.60;;;3.22;;
21175;SDS011;10746;50.178;8.186;2022-09-17T08:32:57;5.53;;;3.45;;
21175;SDS011;10746;50.178;8.186;2022-09-17T08:35:23;6.38;;;3.67;;
21175;SDS011;10746;50.178;8.186;2022-09-17T08:37:53;6.68;;;3.17;;
21175;SDS011;10746;50.178;8.186;2022-09-17T08:40:20;6.38;;;3.00;;
21175;SDS011;10746;50.178;8.186;2022-09-17T08:42:50;5.97;;;3.42;;
21175;SDS011;10746;50.178;8.186;2022-09-17T08:45:21;8.90;;;3.38;;
21175;SDS011;10746;50.178;8.186;2022-09-17T08:47:49;10.48;;;3.10;;
21175;SDS011;10746;50.178;8.186;2022-09-17T08:50:17;8.95;;;3.35;;
21175;SDS011;10746;50.178;8.186;2022-09-17T08:53:01;8.40;;;2.80;;
21175;SDS011;10746;50.178;8.186;2022-09-17T08:55:53;7.53;;;3.00;;
21175;SDS011;10746;50.178;8.186;2022-09-17T08:58:41;8.00;;;2.90;;
21175;SDS011;10746;50.178;8.186;2022-09-17T09:01:30;5.20;;;2.35;;
21175;SDS011;10746;50.178;8.186;2022-09-17T09:04:16;6.60;;;2.53;;
21175;SDS011;10746;50.178;8.186;2022-09-17T09:07:03;8.50;;;2.92;;
21175;SDS011;10746;50.178;8.186;2022-09-17T09:09:34;6.07;;;2.60;;
21175;SDS011;10746;50.178;8.186;2022-09-17T09:12:04;8.63;;;2.50;;
21175;SDS011;10746;50.178;8.186;2022-09-17T09:14:38;6.80;;;2.15;;
21175;SDS011;10746;50.178;8.186;2022-09-17T09:17:12;5.03;;;2.92;;
21175;SDS011;10746;50.178;8.186;2022-09-17T09:19:44;3.20;;;1.80;;
21175;SDS011;10746;50.178;8.186;2022-09-17T09:22:19;5.07;;;2.25;;
21175;SDS011;10746;50.178;8.186;2022-09-17T09:24:58;5.38;;;2.30;;
21175;SDS011;10746;50.178;8.186;2022-09-17T09:27:37;4.18;;;1.83;;
21175;SDS011;10746;50.178;8.186;2022-09-17T09:30:13;4.28;;;2.00;;
21175;SDS011;10746;50.178;8.186;2022-09-17T09:32:45;2.35;;;2.08;;
21175;SDS011;10746;50.178;8.186;2022-09-17T09:35:23;5.32;;;1.90;;
21175;SDS011;10746;50.178;8.186;2022-09-17T09:37:54;2.22;;;2.00;;
21175;SDS011;10746;50.178;8.186;2022-09-17T09:40:32;7.43;;;2.30;;
21175;SDS011;10746;50.178;8.186;2022-09-17T09:43:03;3.58;;;1.75;;
21175;SDS011;10746;50.178;8.186;2022-09-17T09:45:43;5.97;;;2.00;;
21175;SDS011;10746;50.178;8.186;2022-09-17T09:48:27;2.78;;;1.60;;
21175;SDS011;10746;50.178;8.186;2022-09-17T09:51:08;3.50;;;1.80;;
21175;SDS011;10746;50.178;8.186;2022-09-17T09:53:48;6.82;;;2.08;;
21175;SDS011;10746;50.178;8.186;2022-09-17T09:56:32;2.22;;;1.60;;
21175;SDS011;10746;50.178;8.186;2022-09-17T09:59:09;5.05;;;1.83;;
21175;SDS011;10746;50.178;8.186;2022-09-17T10:01:37;4.78;;;1.65;;
21175;SDS011;10746;50.178;8.186;2022-09-17T10:04:13;7.75;;;2.60;;
21175;SDS011;10746;50.178;8.186;2022-09-17T10:06:45;6.82;;;2.00;;
21175;SDS011;10746;50.178;8.186;2022-09-17T10:09:13;2.17;;;1.75;;
21175;SDS011;10746;50.178;8.186;2022-09-17T10:11:41;2.65;;;2.05;;
21175;SDS011;10746;50.178;8.186;2022-09-17T10:14:24;6.57;;;2.33;;
21175;SDS011;10746;50.178;8.186;2022-09-17T10:17:09;9.57;;;2.60;;
21175;SDS011;10746;50.178;8.186;2022-09-17T10:19:41;5.22;;;2.13;;
21175;SDS011;10746;50.178;8.186;2022-09-17T10:24:59;5.57;;;1.75;;
21175;SDS011;10746;50.178;8.186;2022-09-17T10:27:27;6.47;;;1.90;;
21175;SDS011;10746;50.178;8.186;2022-09-17T10:29:57;5.07;;;2.30;;
21175;SDS011;10746;50.178;8.186;2022-09-17T10:32:28;5.10;;;1.83;;
21175;SDS011;10746;50.178;8.186;2022-09-17T10:34:58;6.10;;;1.70;;
21175;SDS011;10746;50.178;8.186;2022-09-17T10:37:31;6.43;;;1.58;;
21175;SDS011;10746;50.178;8.186;2022-09-17T10:40:00;5.43;;;1.70;;
21175;SDS011;10746;50.178;8.186;2022-09-17T10:42:30;8.77;;;2.30;;
21175;SDS011;10746;50.178;8.186;2022-09-17T10:44:57;8.27;;;1.67;;
21175;SDS011;10746;50.178;8.186;2022-09-17T10:47:25;7.03;;;1.58;;
21175;SDS011;10746;50.178;8.186;2022-09-17T10:49:54;6.13;;;1.60;;
21175;SDS011;10746;50.178;8.186;2022-09-17T10:52:25;5.13;;;1.58;;
21175;SDS011;10746;50.178;8.186;2022-09-17T10:57:52;2.67;;;1.52;;
21175;SDS011;10746;50.178;8.186;2022-09-17T11:00:40;7.97;;;2.00;;
21175;SDS011;10746;50.178;8.186;2022-09-17T11:06:29;4.13;;;1.58;;
21175;SDS011;10746;50.178;8.186;2022-09-17T11:09:22;6.30;;;1.90;;
21175;SDS011;10746;50.178;8.186;2022-09-17T11:12:03;4.90;;;1.90;;
21175;SDS011;10746;50.178;8.186;2022-09-17T11:14:54;3.80;;;1.48;;
21175;SDS011;10746;50.178;8.186;2022-09-17T11:17:34;4.60;;;1.63;;
21175;SDS011;10746;50.178;8.186;2022-09-17T11:20:21;3.97;;;1.42;;
21175;SDS011;10746;50.178;8.186;2022-09-17T11:23:02;8.80;;;1.40;;
21175;SDS011;10746;50.178;8.186;2022-09-17T11:25:40;6.53;;;2.45;;
21175;SDS011;10746;50.178;8.186;2022-09-17T11:28:17;6.68;;;1.58;;
21175;SDS011;10746;50.178;8.186;2022-09-17T11:31:13;7.38;;;1.40;;
21175;SDS011;10746;50.178;8.186;2022-09-17T11:33:54;5.07;;;1.30;;
21175;SDS011;10746;50.178;8.186;2022-09-17T11:36:37;3.78;;;1.30;;
21175;SDS011;10746;50.178;8.186;2022-09-17T11:39:13;3.60;;;1.23;;
21175;SDS011;10746;50.178;8.186;2022-09-17T11:41:42;4.15;;;1.10;;
21175;SDS011;10746;50.178;8.186;2022-09-17T11:44:15;4.45;;;1.10;;
21175;SDS011;10746;50.178;8.186;2022-09-17T11:46:50;2.55;;;1.10;;
21175;SDS011;10746;50.178;8.186;2022-09-17T11:49:24;1.90;;;1.08;;
21175;SDS011;10746;50.178;8.186;2022-09-17T11:52:02;1.38;;;0.95;;
21175;SDS011;10746;50.178;8.186;2022-09-17T11:54:32;5.55;;;1.25;;
21175;SDS011;10746;50.178;8.186;2022-09-17T11:57:05;6.45;;;1.65;;
21175;SDS011;10746;50.178;8.186;2022-09-17T11:59:38;7.30;;;1.52;;
21175;SDS011;10746;50.178;8.186;2022-09-17T12:02:13;2.72;;;1.20;;
21175;SDS011;10746;50.178;8.186;2022-09-17T12:04:51;5.40;;;1.42;;
21175;SDS011;10746;50.178;8.186;2022-09-17T12:07:27;3.75;;;1.40;;
21175;SDS011;10746;50.178;8.186;2022-09-17T12:10:02;3.65;;;1.17;;
21175;SDS011;10746;50.178;8.186;2022-09-17T12:12:46;2.15;;;1.15;;
21175;SDS011;10746;50.178;8.186;2022-09-17T12:15:21;6.55;;;3.05;;
21175;SDS011;10746;50.178;8.186;2022-09-17T12:17:51;3.72;;;1.33;;
21175;SDS011;10746;50.178;8.186;2022-09-17T12:20:26;2.30;;;1.23;;
21175;SDS011;10746;50.178;8.186;2022-09-17T12:22:55;3.33;;;1.42;;
21175;SDS011;10746;50.178;8.186;2022-09-17T12:25:25;2.83;;;1.10;;
21175;SDS011;10746;50.178;8.186;2022-09-17T12:27:57;5.05;;;1.02;;
21175;SDS011;10746;50.178;8.186;2022-09-17T12:30:30;5.18;;;1.00;;
21175;SDS011;10746;50.178;8.186;2022-09-17T12:33:06;1.58;;;1.00;;
21175;SDS011;10746;50.178;8.186;2022-09-17T12:35:46;2.72;;;0.90;;
21175;SDS011;10746;50.178;8.186;2022-09-17T12:38:31;3.65;;;1.00;;
21175;SDS011;10746;50.178;8.186;2022-09-17T12:41:17;1.58;;;0.88;;
21175;SDS011;10746;50.178;8.186;2022-09-17T12:43:56;5.47;;;1.17;;
21175;SDS011;10746;50.178;8.186;2022-09-17T12:46:43;2.60;;;1.15;;
21175;SDS011;10746;50.178;8.186;2022-09-17T12:49:42;2.70;;;1.10;;
21175;SDS011;10746;50.178;8.186;2022-09-17T12:52:38;2.40;;;1.10;;
21175;SDS011;10746;50.178;8.186;2022-09-17T12:55:20;1.42;;;0.88;;
21175;SDS011;10746;50.178;8.186;2022-09-17T12:57:59;2.78;;;1.10;;
21175;SDS011;10746;50.178;8.186;2022-09-17T13:00:35;1.50;;;1.00;;
21175;SDS011;10746;50.178;8.186;2022-09-17T13:03:09;1.80;;;0.95;;
21175;SDS011;10746;50.178;8.186;2022-09-17T13:05:47;1.45;;;0.80;;
21175;SDS011;10746;50.178;8.186;2022-09-17T13:08:42;1.80;;;0.80;;
21175;SDS011;10746;50.178;8.186;2022-09-17T13:14:28;1.02;;;0.60;;
21175;SDS011;10746;50.178;8.186;2022-09-17T13:17:03;2.00;;;0.98;;
21175;SDS011;10746;50.178;8.186;2022-09-17T13:19:38;4.07;;;0.90;;
21175;SDS011;10746;50.178;8.186;2022-09-17T13:22:12;3.78;;;1.30;;
21175;SDS011;10746;50.178;8.186;2022-09-17T13:24:43;2.75;;;0.98;;
21175;SDS011;10746;50.178;8.186;2022-09-17T13:27:19;0.90;;;0.80;;
21175;SDS011;10746;50.178;8.186;2022-09-17T13:29:56;2.40;;;0.98;;
21175;SDS011;10746;50.178;8.186;2022-09-17T13:32:42;1.85;;;0.73;;
21175;SDS011;10746;50.178;8.186;2022-09-17T13:38:15;2.63;;;0.82;;
21175;SDS011;10746;50.178;8.186;2022-09-17T13:40:47;5.60;;;2.70;;
21175;SDS011;10746;50.178;8.186;2022-09-17T13:43:15;2.22;;;1.60;;
21175;SDS011;10746;50.178;8.186;2022-09-17T13:48:47;4.35;;;1.65;;
21175;SDS011;10746;50.178;8.186;2022-09-17T13:54:17;2.33;;;1.20;;
21175;SDS011;10746;50.178;8.186;2022-09-17T13:56:47;3.25;;;1.75;;
21175;SDS011;10746;50.178;8.186;2022-09-17T13:59:38;1.88;;;1.10;;
21175;SDS011;10746;50.178;8.186;2022-09-17T14:08:08;2.78;;;1.20;;
21175;SDS011;10746;50.178;8.186;2022-09-17T14:10:55;1.92;;;1.20;;
21175;SDS011;10746;50.178;8.186;2022-09-17T14:13:37;1.23;;;1.08;;
21175;SDS011;10746;50.178;8.186;2022-09-17T14:22:07;1.10;;;1.00;;
21175;SDS011;10746;50.178;8.186;2022-09-17T14:25:31;1.52;;;1.15;;
21175;SDS011;10746;50.178;8.186;2022-09-17T14:28:31;2.10;;;0.90;;
21175;SDS011;10746;50.178;8.186;2022-09-17T14:31:07;3.25;;;1.10;;
21175;SDS011;10746;50.178;8.186;2022-09-17T14:33:41;1.17;;;0.90;;
21175;SDS011;10746;50.178;8.186;2022-09-17T14:36:10;2.30;;;1.00;;
21175;SDS011;10746;50.178;8.186;2022-09-17T14:41:41;2.08;;;0.95;;
21175;SDS011;10746;50.178;8.186;2022-09-17T14:44:11;1.92;;;0.85;;
21175;SDS011;10746;50.178;8.186;2022-09-17T14:46:41;2.25;;;1.15;;
21175;SDS011;10746;50.178;8.186;2022-09-17T14:49:13;1.60;;;0.90;;
21175;SDS011;10746;50.178;8.186;2022-09-17T14:51:41;3.28;;;1.00;;
21175;SDS011;10746;50.178;8.186;2022-09-17T14:54:12;3.25;;;1.20;;
21175;SDS011;10746;50.178;8.186;2022-09-17T14:56:50;1.83;;;0.95;;
21175;SDS011;10746;50.178;8.186;2022-09-17T14:59:25;1.77;;;0.80;;
21175;SDS011;10746;50.178;8.186;2022-09-17T15:02:18;1.10;;;1.00;;
21175;SDS011;10746;50.178;8.186;2022-09-17T15:04:52;1.83;;;1.13;;
21175;SDS011;10746;50.178;8.186;2022-09-17T15:07:19;5.32;;;1.73;;
21175;SDS011;10746;50.178;8.186;2022-09-17T15:09:47;1.88;;;1.17;;
21175;SDS011;10746;50.178;8.186;2022-09-17T15:12:16;1.42;;;1.00;;
21175;SDS011;10746;50.178;8.186;2022-09-17T15:14:44;2.85;;;1.00;;
21175;SDS011;10746;50.178;8.186;2022-09-17T15:17:12;2.05;;;0.95;;
21175;SDS011;10746;50.178;8.186;2022-09-17T15:19:44;1.10;;;1.00;;
21175;SDS011;10746;50.178;8.186;2022-09-17T15:22:15;1.02;;;0.90;;
21175;SDS011;10746;50.178;8.186;2022-09-17T15:24:46;1.00;;;1.00;;
21175;SDS011;10746;50.178;8.186;2022-09-17T15:27:21;1.27;;;1.17;;
21175;SDS011;10746;50.178;8.186;2022-09-17T15:29:53;1.23;;;1.00;;
21175;SDS011;10746;50.178;8.186;2022-09-17T15:32:23;1.45;;;0.93;;
21175;SDS011;10746;50.178;8.186;2022-09-17T15:37:48;5.43;;;1.75;;
21175;SDS011;10746;50.178;8.186;2022-09-17T15:40:22;2.25;;;1.45;;
21175;SDS011;10746;50.178;8.186;2022-09-17T15:42:54;1.20;;;1.20;;
21175;SDS011;10746;50.178;8.186;2022-09-17T15:45:27;2.05;;;1.13;;
21175;SDS011;10746;50.178;8.186;2022-09-17T15:47:56;0.95;;;0.93;;
21175;SDS011;10746;50.178;8.186;2022-09-17T15:50:24;0.98;;;0.90;;
21175;SDS011;10746;50.178;8.186;2022-09-17T15:52:57;0.90;;;0.90;;
21175;SDS011;10746;50.178;8.186;2022-09-17T15:55:37;2.63;;;1.13;;
21175;SDS011;10746;50.178;8.186;2022-09-17T15:58:19;2.60;;;1.10;;
21175;SDS011;10746;50.178;8.186;2022-09-17T16:00:51;1.85;;;1.05;;
21175;SDS011;10746;50.178;8.186;2022-09-17T16:04:00;0.98;;;0.90;;